createdAt,value
2022-10-28T00:00:18.070Z,4.40
2022-10-28T00:03:03.855Z,4.38
2022-10-28T00:05:49.173Z,4.25
2022-10-28T00:08:35.029Z,4.55
2022-10-28T00:11:26.109Z,4.35
2022-10-28T00:14:11.752Z,4.60
2022-10-28T00:16:57.361Z,4.40
2022-10-28T00:19:42.640Z,4.20
2022-10-28T00:22:28.387Z,3.30
2022-10-28T00:25:13.804Z,4.07
2022-10-28T00:27:59.396Z,4.10
2022-10-28T00:30:44.812Z,4.20
2022-10-28T00:33:30.298Z,3.85
2022-10-28T00:36:31.830Z,3.47
2022-10-28T00:39:24.324Z,4.20
2022-10-28T00:42:10.692Z,3.83
2022-10-28T00:44:57.988Z,3.55
2022-10-28T00:48:00.031Z,3.47
2022-10-28T00:50:49.423Z,4.07
2022-10-28T00:53:35.971Z,4.80
2022-10-28T00:56:24.091Z,4.30
2022-10-28T00:59:18.752Z,3.88
2022-10-28T01:02:06.439Z,3.83
2022-10-28T01:04:52.583Z,3.40
2022-10-28T01:07:38.257Z,3.95
2022-10-28T01:10:46.189Z,3.45
2022-10-28T01:13:55.546Z,3.90
2022-10-28T01:17:11.811Z,3.63
2022-10-28T01:19:59.891Z,4.35
2022-10-28T01:22:53.891Z,4.20
2022-10-28T01:26:03.283Z,3.75
2022-10-28T01:29:21.919Z,3.83
2022-10-28T01:32:24.513Z,4.03
2022-10-28T01:35:13.135Z,4.03
2022-10-28T01:38:10.835Z,4.30
2022-10-28T01:41:12.196Z,4.00
2022-10-28T01:44:29.120Z,4.63
2022-10-28T01:47:26.811Z,3.80
2022-10-28T01:50:22.808Z,4.10
2022-10-28T01:53:13.275Z,4.18
2022-10-28T01:56:03.872Z,4.20
2022-10-28T01:58:50.898Z,4.10
2022-10-28T02:01:37.150Z,4.05
2022-10-28T02:04:23.220Z,5.43
2022-10-28T02:07:08.748Z,4.10
2022-10-28T02:10:10.064Z,4.22
2022-10-28T02:12:57.840Z,4.60
2022-10-28T02:15:47.608Z,4.57
2022-10-28T02:19:00.794Z,4.32
2022-10-28T02:22:13.913Z,4.22
2022-10-28T02:25:17.189Z,4.82
2022-10-28T02:31:03.121Z,4.25
2022-10-28T02:33:54.398Z,4.45
2022-10-28T02:36:44.248Z,4.35
2022-10-28T02:39:37.067Z,4.45
2022-10-28T02:42:33.427Z,4.43
2022-10-28T02:45:25.519Z,4.88
2022-10-28T02:48:22.443Z,5.90
2022-10-28T02:51:12.092Z,5.47
2022-10-28T02:54:11.132Z,4.78
2022-10-28T02:57:07.949Z,4.13
2022-10-28T02:59:59.689Z,4.15
2022-10-28T03:02:45.511Z,4.38
2022-10-28T03:05:31.044Z,4.68
2022-10-28T03:08:16.647Z,4.30
2022-10-28T03:11:02.268Z,5.07
2022-10-28T03:13:47.927Z,4.13
2022-10-28T03:16:33.670Z,4.85
2022-10-28T03:19:19.348Z,4.55
2022-10-28T03:22:04.780Z,4.35
2022-10-28T03:24:50.258Z,4.65
2022-10-28T03:27:35.656Z,4.18
2022-10-28T03:30:21.191Z,4.88
2022-10-28T03:33:06.971Z,4.20
2022-10-28T03:35:52.393Z,4.25
2022-10-28T03:38:37.876Z,4.80
2022-10-28T03:41:23.256Z,4.40
2022-10-28T03:44:09.115Z,4.32
2022-10-28T03:46:54.631Z,4.45
2022-10-28T03:49:40.048Z,4.57
2022-10-28T03:52:25.364Z,4.10
2022-10-28T03:55:11.159Z,5.38
2022-10-28T03:57:56.651Z,4.45
2022-10-28T04:00:42.140Z,4.57
2022-10-28T04:03:27.898Z,4.25
2022-10-28T04:06:14.506Z,4.97
2022-10-28T04:08:59.687Z,4.65
2022-10-28T04:11:48.866Z,5.00
2022-10-28T04:14:34.598Z,4.57
2022-10-28T04:17:19.965Z,4.45
2022-10-28T04:20:05.611Z,5.18
2022-10-28T04:22:54.590Z,4.90
2022-10-28T04:25:42.805Z,3.97
2022-10-28T04:28:28.199Z,4.30
2022-10-28T04:31:13.945Z,4.72
2022-10-28T04:33:59.314Z,4.47
2022-10-28T04:36:45.009Z,4.55
2022-10-28T04:39:30.356Z,4.30
2022-10-28T04:42:16.062Z,4.43
2022-10-28T04:45:01.884Z,4.32
2022-10-28T04:47:47.171Z,4.25
2022-10-28T04:50:32.999Z,5.28
2022-10-28T04:53:18.217Z,4.78
2022-10-28T04:56:03.786Z,4.50
2022-10-28T04:58:49.209Z,4.10
2022-10-28T05:01:35.014Z,4.10
2022-10-28T05:04:20.876Z,4.40
2022-10-28T05:07:06.986Z,4.05
2022-10-28T05:09:52.491Z,4.47
2022-10-28T05:12:43.035Z,4.90
2022-10-28T05:15:28.563Z,4.45
2022-10-28T05:18:14.390Z,4.60
2022-10-28T05:20:59.799Z,4.50
2022-10-28T05:23:45.574Z,5.00
2022-10-28T05:26:30.967Z,5.82
2022-10-28T05:29:16.424Z,5.18
2022-10-28T05:32:02.059Z,4.72
2022-10-28T05:34:47.702Z,4.63
2022-10-28T05:37:33.596Z,4.90
2022-10-28T05:40:18.966Z,4.78
2022-10-28T05:43:04.654Z,4.70
2022-10-28T05:45:57.787Z,3.78
2022-10-28T05:48:43.443Z,4.38
2022-10-28T05:51:28.925Z,4.18
2022-10-28T05:54:14.368Z,4.45
2022-10-28T05:57:00.038Z,3.92
2022-10-28T05:59:45.546Z,3.80
2022-10-28T06:02:30.899Z,4.68
2022-10-28T06:05:17.261Z,4.60
2022-10-28T06:08:04.849Z,4.28
2022-10-28T06:10:54.560Z,4.30
2022-10-28T06:13:40.193Z,4.00
2022-10-28T06:16:26.054Z,4.45
2022-10-28T06:19:11.393Z,4.32
2022-10-28T06:21:57.175Z,4.18
2022-10-28T06:24:42.912Z,3.88
2022-10-28T06:27:28.546Z,4.07
2022-10-28T06:30:14.444Z,3.70
2022-10-28T06:32:59.781Z,4.20
2022-10-28T06:35:45.585Z,3.88
2022-10-28T06:38:30.968Z,3.92
2022-10-28T06:41:16.584Z,3.78
2022-10-28T06:44:02.244Z,3.75
2022-10-28T06:46:49.107Z,4.15
2022-10-28T06:49:34.571Z,4.32
2022-10-28T06:52:20.568Z,4.07
2022-10-28T06:55:06.549Z,4.03
2022-10-28T06:57:55.028Z,4.30
2022-10-28T07:00:40.902Z,4.22
2022-10-28T07:03:26.364Z,3.67
2022-10-28T07:06:12.157Z,3.78
2022-10-28T07:08:57.758Z,4.10
2022-10-28T07:11:44.992Z,3.53
2022-10-28T07:14:32.222Z,4.40
2022-10-28T07:17:17.529Z,4.45
2022-10-28T07:20:03.089Z,5.00
2022-10-28T07:22:48.376Z,4.10
2022-10-28T07:25:33.882Z,3.95
2022-10-28T07:28:19.686Z,4.00
2022-10-28T07:31:05.388Z,3.75
2022-10-28T07:33:54.527Z,4.05
2022-10-28T07:36:40.216Z,4.57
2022-10-28T07:39:25.556Z,4.50
2022-10-28T07:42:10.956Z,3.97
2022-10-28T07:44:56.595Z,3.80
2022-10-28T07:47:42.497Z,4.35
2022-10-28T07:50:28.040Z,4.53
2022-10-28T07:56:02.016Z,4.20
2022-10-28T07:58:47.428Z,4.03
2022-10-28T08:01:33.104Z,3.67
2022-10-28T08:04:18.474Z,4.03
2022-10-28T08:07:04.077Z,4.32
2022-10-28T08:09:49.746Z,3.85
2022-10-28T08:12:35.387Z,3.70
2022-10-28T08:15:23.611Z,3.75
2022-10-28T08:18:09.050Z,3.70
2022-10-28T08:20:54.701Z,3.80
2022-10-28T08:23:41.445Z,3.60
2022-10-28T08:26:26.972Z,4.20
2022-10-28T08:29:12.893Z,3.75
2022-10-28T08:31:58.233Z,5.07
2022-10-28T08:34:43.973Z,5.38
2022-10-28T08:37:29.236Z,4.47
2022-10-28T08:40:14.761Z,3.50
2022-10-28T08:43:08.659Z,3.80
2022-10-28T08:46:04.490Z,3.35
2022-10-28T08:48:49.991Z,3.60
2022-10-28T08:51:48.867Z,3.17
2022-10-28T08:54:42.138Z,3.40
2022-10-28T08:57:39.461Z,3.53
2022-10-28T09:00:30.827Z,2.83
2022-10-28T09:03:20.560Z,3.15
2022-10-28T09:06:08.087Z,3.40
2022-10-28T09:08:55.720Z,3.40
2022-10-28T09:12:11.504Z,3.13
2022-10-28T09:15:13.085Z,3.47
2022-10-28T09:18:18.765Z,3.45
2022-10-28T09:24:00.880Z,3.60
2022-10-28T09:29:58.442Z,4.13
2022-10-28T09:33:05.494Z,3.90
2022-10-28T09:35:51.997Z,3.70
2022-10-28T09:38:38.573Z,3.17
2022-10-28T09:41:27.991Z,3.20
2022-10-28T09:44:13.365Z,3.75
2022-10-28T09:47:00.773Z,3.13
2022-10-28T09:49:49.530Z,2.80
2022-10-28T09:52:48.546Z,3.10
2022-10-28T09:55:33.848Z,2.72
2022-10-28T09:58:19.707Z,2.95
2022-10-28T10:01:05.245Z,3.30
2022-10-28T10:03:52.065Z,3.08
2022-10-28T10:06:39.206Z,3.83
2022-10-28T10:09:30.712Z,3.15
2022-10-28T10:12:16.904Z,2.90
2022-10-28T10:15:06.243Z,3.40
2022-10-28T10:17:53.181Z,3.05
2022-10-28T10:20:55.925Z,3.70
2022-10-28T10:23:41.305Z,3.20
2022-10-28T10:26:32.764Z,2.85
2022-10-28T10:29:18.636Z,3.47
2022-10-28T10:32:26.057Z,3.17
2022-10-28T10:35:21.005Z,3.42
2022-10-28T10:38:07.823Z,3.22
2022-10-28T10:40:53.724Z,3.15
2022-10-28T10:43:39.975Z,3.17
2022-10-28T10:46:25.859Z,3.15
2022-10-28T10:49:15.630Z,2.55
2022-10-28T10:52:19.203Z,2.78
2022-10-28T10:55:08.102Z,2.75
2022-10-28T10:57:54.691Z,3.22
2022-10-28T11:00:47.330Z,2.75
2022-10-28T11:03:39.459Z,2.30
2022-10-28T11:06:28.920Z,2.60
2022-10-28T11:09:20.174Z,2.40
2022-10-28T11:12:26.606Z,2.40
2022-10-28T11:15:11.938Z,2.30
2022-10-28T11:18:21.151Z,2.33
2022-10-28T11:24:25.305Z,2.45
2022-10-28T11:27:27.766Z,2.78
2022-10-28T11:30:17.552Z,2.60
2022-10-28T11:33:32.340Z,2.72
2022-10-28T11:36:28.477Z,2.22
2022-10-28T11:39:21.059Z,2.50
2022-10-28T11:42:24.136Z,2.88
2022-10-28T11:45:28.843Z,2.90
2022-10-28T11:48:29.422Z,2.33
2022-10-28T11:51:42.033Z,2.28
2022-10-28T11:54:46.471Z,2.42
2022-10-28T11:57:47.195Z,2.40
2022-10-28T12:01:01.837Z,2.75
2022-10-28T12:04:04.452Z,2.85
2022-10-28T12:06:50.290Z,2.78
2022-10-28T12:09:41.659Z,2.20
2022-10-28T12:12:41.122Z,2.45
2022-10-28T12:15:32.997Z,2.45
2022-10-28T12:18:51.541Z,2.33
2022-10-28T12:21:48.088Z,2.60
2022-10-28T12:24:37.160Z,3.88
2022-10-28T12:27:34.136Z,2.70
2022-10-28T12:30:26.206Z,2.67
2022-10-28T12:33:37.423Z,2.47
2022-10-28T12:36:41.805Z,2.80
2022-10-28T12:39:54.671Z,2.15
2022-10-28T12:42:52.049Z,2.45
2022-10-28T12:45:40.245Z,2.60
2022-10-28T12:48:35.417Z,2.58
2022-10-28T12:51:30.529Z,2.38
2022-10-28T12:54:25.576Z,2.65
2022-10-28T12:57:17.443Z,2.20
2022-10-28T13:00:18.881Z,2.47
2022-10-28T13:03:11.981Z,2.28
2022-10-28T13:06:21.996Z,3.20
2022-10-28T13:09:39.334Z,5.30
2022-10-28T13:12:37.319Z,2.90
2022-10-28T13:15:50.454Z,2.30
2022-10-28T13:18:55.011Z,2.42
2022-10-28T13:22:24.429Z,2.95
2022-10-28T13:25:21.808Z,2.90
2022-10-28T13:28:14.000Z,3.13
2022-10-28T13:31:02.218Z,2.70
2022-10-28T13:33:58.495Z,3.03
2022-10-28T13:36:47.091Z,3.67
2022-10-28T13:39:46.369Z,4.10
2022-10-28T13:42:46.126Z,2.50
2022-10-28T13:45:46.164Z,2.28
2022-10-28T13:48:44.886Z,2.15
2022-10-28T13:51:31.649Z,2.50
2022-10-28T13:54:44.886Z,2.60
2022-10-28T13:57:39.643Z,2.40
2022-10-28T14:03:23.717Z,2.55
2022-10-28T14:06:09.897Z,2.42
2022-10-28T14:08:56.472Z,3.20
2022-10-28T14:11:42.692Z,2.65
2022-10-28T14:14:28.288Z,2.83
2022-10-28T14:17:24.445Z,2.55
2022-10-28T14:20:43.686Z,2.40
2022-10-28T14:23:29.144Z,2.58
2022-10-28T14:26:14.663Z,2.83
2022-10-28T14:29:00.533Z,2.67
2022-10-28T14:31:45.957Z,2.60
2022-10-28T14:34:37.592Z,2.60
2022-10-28T14:37:57.125Z,2.67
2022-10-28T14:41:06.543Z,3.10
2022-10-28T14:44:23.145Z,2.80
2022-10-28T14:47:27.645Z,2.83
2022-10-28T14:50:33.889Z,2.25
2022-10-28T14:53:33.875Z,2.60
2022-10-28T14:59:26.383Z,2.33
2022-10-28T15:02:17.054Z,2.67
2022-10-28T15:05:20.363Z,3.15
2022-10-28T15:08:05.797Z,2.30
2022-10-28T15:10:51.595Z,2.40
2022-10-28T15:13:36.985Z,2.50
2022-10-28T15:16:24.627Z,3.25
2022-10-28T15:19:13.423Z,2.70
2022-10-28T15:22:15.520Z,2.60
2022-10-28T15:25:06.118Z,2.40
2022-10-28T15:27:53.349Z,2.40
2022-10-28T15:30:46.071Z,2.83
2022-10-28T15:33:40.251Z,2.88
2022-10-28T15:36:26.639Z,3.33
2022-10-28T15:39:17.564Z,2.80
2022-10-28T15:42:03.486Z,2.78
2022-10-28T15:44:55.792Z,2.85
2022-10-28T15:47:45.190Z,2.85
2022-10-28T15:50:35.494Z,2.28
2022-10-28T15:53:31.592Z,2.47
2022-10-28T15:56:21.629Z,3.17
2022-10-28T15:59:19.519Z,3.25
2022-10-28T16:02:41.455Z,3.60
2022-10-28T16:05:32.749Z,3.80
2022-10-28T16:08:21.771Z,3.63
2022-10-28T16:11:18.911Z,3.58
2022-10-28T16:14:37.487Z,3.70
2022-10-28T16:17:30.653Z,3.15
2022-10-28T16:20:20.681Z,3.72
2022-10-28T16:23:06.006Z,3.42
2022-10-28T16:25:51.731Z,3.70
2022-10-28T16:28:38.030Z,4.28
2022-10-28T16:31:28.472Z,3.08
2022-10-28T16:34:15.181Z,3.70
2022-10-28T16:37:00.932Z,3.33
2022-10-28T16:39:47.172Z,3.22
2022-10-28T16:42:32.596Z,4.03
2022-10-28T16:45:19.729Z,3.63
2022-10-28T16:48:09.348Z,3.53
2022-10-28T16:51:04.457Z,3.28
2022-10-28T16:53:50.967Z,3.70
2022-10-28T16:56:36.764Z,5.35
2022-10-28T16:59:22.987Z,4.70
2022-10-28T17:02:30.592Z,4.63
2022-10-28T17:05:22.444Z,3.90
2022-10-28T17:08:09.969Z,5.03
2022-10-28T17:10:55.625Z,5.38
2022-10-28T17:13:41.495Z,5.05
2022-10-28T17:16:27.420Z,4.60
2022-10-28T17:19:13.009Z,4.43
2022-10-28T17:21:58.501Z,3.97
2022-10-28T17:24:44.055Z,4.03
2022-10-28T17:27:29.900Z,5.97
2022-10-28T17:30:17.528Z,4.95
2022-10-28T17:33:03.035Z,4.90
2022-10-28T17:35:48.612Z,6.00
2022-10-28T17:38:33.891Z,6.43
2022-10-28T17:41:19.671Z,5.50
2022-10-28T17:44:05.096Z,5.25
2022-10-28T17:46:51.483Z,5.55
2022-10-28T17:49:36.922Z,4.88
2022-10-28T17:52:22.510Z,4.55
2022-10-28T17:55:08.655Z,4.38
2022-10-28T17:57:54.575Z,3.90
2022-10-28T18:00:40.295Z,18.63
2022-10-28T18:03:26.442Z,8.82
2022-10-28T18:06:12.950Z,7.22
2022-10-28T18:08:58.689Z,5.20
2022-10-28T18:11:44.172Z,11.70
2022-10-28T18:14:30.082Z,6.75
2022-10-28T18:17:17.498Z,4.18
2022-10-28T18:20:03.265Z,3.60
2022-10-28T18:22:48.704Z,3.58
2022-10-28T18:25:34.218Z,3.65
2022-10-28T18:28:22.858Z,4.05
2022-10-28T18:31:11.738Z,3.53
2022-10-28T18:34:00.240Z,4.07
2022-10-28T18:36:45.660Z,3.55
2022-10-28T18:39:31.396Z,3.72
2022-10-28T18:42:21.658Z,3.92
2022-10-28T18:45:08.172Z,3.50
2022-10-28T18:47:53.963Z,4.18
2022-10-28T18:50:39.929Z,4.30
2022-10-28T18:53:26.331Z,5.15
2022-10-28T18:56:17.925Z,3.80
2022-10-28T18:59:04.654Z,4.75
2022-10-28T19:01:50.423Z,4.47
2022-10-28T19:04:35.599Z,4.85
2022-10-28T19:07:21.193Z,4.80
2022-10-28T19:10:06.913Z,5.03
2022-10-28T19:12:53.237Z,5.13
2022-10-28T19:15:45.696Z,5.57
2022-10-28T19:18:35.391Z,5.70
2022-10-28T19:21:21.275Z,6.35
2022-10-28T19:24:07.759Z,6.22
2022-10-28T19:26:53.241Z,5.18
2022-10-28T19:29:38.843Z,6.28
2022-10-28T19:32:24.204Z,5.88
2022-10-28T19:35:10.031Z,6.00
2022-10-28T19:37:55.888Z,5.57
2022-10-28T19:40:41.459Z,6.15
2022-10-28T19:43:26.876Z,6.00
2022-10-28T19:46:19.945Z,5.72
2022-10-28T19:49:06.666Z,5.55
2022-10-28T19:51:52.221Z,5.80
2022-10-28T19:54:38.245Z,5.85
2022-10-28T19:57:23.607Z,5.10
2022-10-28T20:00:10.389Z,5.43
2022-10-28T20:02:55.985Z,5.43
2022-10-28T20:05:41.713Z,4.75
2022-10-28T20:08:27.329Z,4.38
2022-10-28T20:11:21.331Z,4.60
2022-10-28T20:14:12.689Z,4.65
2022-10-28T20:17:02.539Z,4.10
2022-10-28T20:19:51.155Z,4.60
2022-10-28T20:22:42.092Z,4.88
2022-10-28T20:25:28.046Z,4.90
2022-10-28T20:28:13.624Z,4.43
2022-10-28T20:31:08.464Z,3.75
2022-10-28T20:33:56.951Z,3.88
2022-10-28T20:36:46.319Z,4.03
2022-10-28T20:39:31.716Z,4.28
2022-10-28T20:42:17.257Z,3.97
2022-10-28T20:45:03.155Z,4.32
2022-10-28T20:47:48.933Z,4.35
2022-10-28T20:50:34.509Z,5.45
2022-10-28T20:53:24.194Z,4.50
2022-10-28T20:56:20.078Z,4.55
2022-10-28T20:59:05.927Z,4.40
2022-10-28T21:01:51.669Z,5.25
2022-10-28T21:04:37.697Z,4.70
2022-10-28T21:07:23.181Z,4.72
2022-10-28T21:10:09.368Z,4.20
2022-10-28T21:12:55.834Z,5.07
2022-10-28T21:15:44.190Z,4.85
2022-10-28T21:18:29.969Z,4.32
2022-10-28T21:21:15.655Z,4.60
2022-10-28T21:24:01.455Z,4.40
2022-10-28T21:26:48.440Z,4.75
2022-10-28T21:29:37.611Z,5.05
2022-10-28T21:32:23.995Z,4.55
2022-10-28T21:35:10.031Z,5.00
2022-10-28T21:37:56.325Z,4.55
2022-10-28T21:40:42.041Z,5.05
2022-10-28T21:43:32.472Z,4.75
2022-10-28T21:46:19.288Z,5.05
2022-10-28T21:49:04.846Z,5.88
2022-10-28T21:51:50.555Z,5.43
2022-10-28T21:54:36.138Z,5.25
2022-10-28T21:57:21.407Z,4.95
2022-10-28T22:00:07.820Z,4.50
2022-10-28T22:02:53.483Z,5.45
2022-10-28T22:05:39.657Z,4.80
2022-10-28T22:08:25.183Z,4.38
2022-10-28T22:11:19.278Z,5.30
2022-10-28T22:14:05.229Z,4.35
2022-10-28T22:16:50.911Z,6.57
2022-10-28T22:19:36.804Z,4.47
2022-10-28T22:22:22.266Z,5.43
2022-10-28T22:25:10.420Z,5.22
2022-10-28T22:27:56.376Z,4.75
2022-10-28T22:30:41.952Z,4.80
2022-10-28T22:33:27.475Z,4.53
2022-10-28T22:36:15.289Z,5.07
2022-10-28T22:39:00.867Z,5.80
2022-10-28T22:41:46.297Z,5.22
2022-10-28T22:44:32.175Z,5.40
2022-10-28T22:47:17.892Z,4.75
2022-10-28T22:50:03.597Z,5.63
2022-10-28T22:52:49.121Z,5.35
2022-10-28T22:55:34.762Z,4.85
2022-10-28T22:58:21.375Z,4.90
2022-10-28T23:01:11.511Z,5.50
2022-10-28T23:03:56.914Z,4.85
2022-10-28T23:06:42.447Z,5.13
2022-10-28T23:09:27.695Z,5.20
2022-10-28T23:12:13.740Z,5.60
2022-10-28T23:14:59.344Z,5.60
2022-10-28T23:17:49.152Z,5.50
2022-10-28T23:20:35.845Z,5.57
2022-10-28T23:23:21.153Z,4.97
2022-10-28T23:26:06.748Z,5.07
2022-10-28T23:28:54.167Z,5.90
2022-10-28T23:31:39.570Z,5.53
2022-10-28T23:34:27.211Z,5.57
2022-10-28T23:37:12.645Z,5.47
2022-10-28T23:39:58.276Z,5.18
2022-10-28T23:42:43.752Z,5.28
2022-10-28T23:45:29.297Z,5.15
2022-10-28T23:48:14.874Z,5.18
2022-10-28T23:51:00.962Z,4.85
2022-10-28T23:53:46.620Z,4.88
2022-10-28T23:56:32.084Z,5.40
2022-10-28T23:59:17.652Z,4.32
